Ashland, KY (41101)

11:24 AM EST on February 12, 2016 (GMT -0500)
Boy Scout from Ashland | | Change Station
CLOSE
Current Station
Personal Weather Station
Location: Ashland, KY
Elevation: 689 ft
Nearby Weather Stations

Elev 689 ft 38.44 °N, 82.65 °W | Updated 28 seconds ago

Snow
Snow
28.5 °F
Feels Like 28 °F
N
0.0
Wind Variable Wind from SSW
Gusts 0.0 mph

Today
High -- | Low -- °F
--% Chance of Precip.
Yesterday
High -- | Low -- °F
Precip. -- in
Pressure 30.19 in
Visibility 10.0 miles
Clouds Overcast 6000 ft
Windchill 28 °F
Dew Point 16 °F
Humidity 58%
Rainfall 0.00 in
Snow Depth Not available.
7:25 AM 6:04 PM
Waxing Crescent, 21% visible
METAR KHTS 121551Z 21004KT 10SM OVC060 M04/M12 A3016 RMK AO2 SLP222 T10441122
Pressure 30.19 in
Visibility 10.0 miles
Clouds Overcast 6000 ft
Windchill 28 °F
Dew Point 16 °F
Humidity 58%
Rainfall 0.00 in
Snow Depth Not available.
7:25 AM 6:04 PM
Waxing Crescent, 21% visible
METAR KHTS 121551Z 21004KT 10SM OVC060 M04/M12 A3016 RMK AO2 SLP222 T10441122

10-Day Weather Forecast

Almanac

Astronomy

Feb. 12, 2016 Rise Set
Actual Time
Civil Twilight
Nautical Twilight
Astronomical Twilight
Moon
Length of Visible Light
Length of Day
Tomorrow will be .
, % of the Moon is Illuminated

Today's Extremes

State Highs State Lows

Community

WunderPhotos

Upload Photos

1,892,350 photos uploaded!

WunderBlog® & News

Nearby

Air Quality

  Air Quality AQ Index Pollutant
Not available.

Snow Depth

Station Depth Elevation

Earthquake Activity

City Distance Mag. Time & Date
Minimum magnitude displayed is 2.5.

Coastal Water Temperatures

Place Temperature

Stations

Nearby Weather Stations

Station Location Temp. Windchill Dew Point Humidity Wind Precip. Elev Updated Type
                   

Watches & Warnings

There are currently no watches in effect.